Howardton, Illinois
Current Conditions -  °F | °C
As of 6:52 PM on Wednesday 22 Oct 2014 (Local Time) from KMDH Reporting Station
Clear Clear  
Wind Chill: 44°   Ceiling: Unl
Heat Index: 46°   Visibility: 10mi
Dew Point: 40°   Wind: 5mph
Humidity: 79%   Direction: 60°ENE
Pressure: 30.22"   Gusts: NA
Location:  37.6428°N, 89.4674°W
Report Text: KMDH 222352Z 06004KT 10SM CLR 08/04 A3022 RMK AO2 SLP236 T00780044 10183 20078 56004
Loading
Personal Weather Stations






























Interactive Weather Map
Tropical Storm Tracking
New forecast layout! Learn more

10-Day Weather Forecast

Advertisements
Track Severe Weather on mobile